sensor_id;sensor_type;location;lat;lon;timestamp;temperature;humidity
52016;DHT22;38032;53.326;6.472;2023-05-02T00:02:06;11.90;99.90
52016;DHT22;38032;53.326;6.472;2023-05-02T00:04:32;11.90;99.90
52016;DHT22;38032;53.326;6.472;2023-05-02T00:06:58;11.90;99.90
52016;DHT22;38032;53.326;6.472;2023-05-02T00:09:24;11.80;99.90
52016;DHT22;38032;53.326;6.472;2023-05-02T00:11:50;11.80;99.90
52016;DHT22;38032;53.326;6.472;2023-05-02T00:14:16;11.80;99.90
52016;DHT22;38032;53.326;6.472;2023-05-02T00:16:41;11.80;99.90
52016;DHT22;38032;53.326;6.472;2023-05-02T00:19:07;11.80;99.90
52016;DHT22;38032;53.326;6.472;2023-05-02T00:21:33;11.80;99.90
52016;DHT22;38032;53.326;6.472;2023-05-02T00:23:59;11.80;99.90
52016;DHT22;38032;53.326;6.472;2023-05-02T00:26:25;11.80;99.90
52016;DHT22;38032;53.326;6.472;2023-05-02T00:28:52;11.70;99.90
52016;DHT22;38032;53.326;6.472;2023-05-02T00:31:17;11.70;99.90
52016;DHT22;38032;53.326;6.472;2023-05-02T00:33:43;11.70;99.90
52016;DHT22;38032;53.326;6.472;2023-05-02T00:36:14;11.70;99.90
52016;DHT22;38032;53.326;6.472;2023-05-02T00:38:40;11.70;99.90
52016;DHT22;38032;53.326;6.472;2023-05-02T00:41:06;11.70;99.90
52016;DHT22;38032;53.326;6.472;2023-05-02T00:43:31;11.70;99.90
52016;DHT22;38032;53.326;6.472;2023-05-02T00:45:57;11.70;99.90
52016;DHT22;38032;53.326;6.472;2023-05-02T00:48:24;11.60;99.90
52016;DHT22;38032;53.326;6.472;2023-05-02T00:50:50;11.60;99.90
52016;DHT22;38032;53.326;6.472;2023-05-02T00:53:16;11.60;99.90
52016;DHT22;38032;53.326;6.472;2023-05-02T00:55:43;11.60;99.90
52016;DHT22;38032;53.326;6.472;2023-05-02T00:58:14;11.60;99.90
52016;DHT22;38032;53.326;6.472;2023-05-02T01:03:34;11.50;99.90
52016;DHT22;38032;53.326;6.472;2023-05-02T01:06:10;11.50;99.90
52016;DHT22;38032;53.326;6.472;2023-05-02T01:08:55;11.50;99.90
52016;DHT22;38032;53.326;6.472;2023-05-02T01:11:47;11.50;99.90
52016;DHT22;38032;53.326;6.472;2023-05-02T01:14:16;11.40;99.90
52016;DHT22;38032;53.326;6.472;2023-05-02T01:16:44;11.40;99.90
52016;DHT22;38032;53.326;6.472;2023-05-02T01:19:24;11.30;99.90
52016;DHT22;38032;53.326;6.472;2023-05-02T01:21:54;11.20;99.90
52016;DHT22;38032;53.326;6.472;2023-05-02T01:24:26;11.30;99.90
52016;DHT22;38032;53.326;6.472;2023-05-02T01:27:17;11.40;99.90
52016;DHT22;38032;53.326;6.472;2023-05-02T01:29:49;11.10;99.90
52016;DHT22;38032;53.326;6.472;2023-05-02T01:32:16;11.00;99.90
52016;DHT22;38032;53.326;6.472;2023-05-02T01:34:45;11.00;99.90
52016;DHT22;38032;53.326;6.472;2023-05-02T01:37:12;11.10;99.90
52016;DHT22;38032;53.326;6.472;2023-05-02T01:39:40;10.90;99.90
52016;DHT22;38032;53.326;6.472;2023-05-02T01:42:07;10.80;99.90
52016;DHT22;38032;53.326;6.472;2023-05-02T01:44:34;10.90;99.90
52016;DHT22;38032;53.326;6.472;2023-05-02T01:47:03;10.90;99.90
52016;DHT22;38032;53.326;6.472;2023-05-02T01:49:32;10.50;99.90
52016;DHT22;38032;53.326;6.472;2023-05-02T01:52:04;10.80;99.90
52016;DHT22;38032;53.326;6.472;2023-05-02T01:54:30;10.80;99.90
52016;DHT22;38032;53.326;6.472;2023-05-02T01:56:59;10.80;99.90
52016;DHT22;38032;53.326;6.472;2023-05-02T01:59:27;10.70;99.90
52016;DHT22;38032;53.326;6.472;2023-05-02T02:01:55;10.70;99.90
52016;DHT22;38032;53.326;6.472;2023-05-02T02:04:22;10.60;99.90
52016;DHT22;38032;53.326;6.472;2023-05-02T02:06:54;10.50;99.90
52016;DHT22;38032;53.326;6.472;2023-05-02T02:09:22;10.50;99.90
52016;DHT22;38032;53.326;6.472;2023-05-02T02:11:52;10.50;99.90
52016;DHT22;38032;53.326;6.472;2023-05-02T02:14:21;10.50;99.90
52016;DHT22;38032;53.326;6.472;2023-05-02T02:16:52;10.50;99.90
52016;DHT22;38032;53.326;6.472;2023-05-02T02:19:20;10.50;99.90
52016;DHT22;38032;53.326;6.472;2023-05-02T02:21:48;10.40;99.90
52016;DHT22;38032;53.326;6.472;2023-05-02T02:24:17;10.50;99.90
52016;DHT22;38032;53.326;6.472;2023-05-02T02:26:45;10.40;99.90
52016;DHT22;38032;53.326;6.472;2023-05-02T02:29:11;10.40;99.90
52016;DHT22;38032;53.326;6.472;2023-05-02T02:31:37;10.50;99.90
52016;DHT22;38032;53.326;6.472;2023-05-02T02:34:04;10.40;99.90
52016;DHT22;38032;53.326;6.472;2023-05-02T02:41:41;10.40;99.90
52016;DHT22;38032;53.326;6.472;2023-05-02T02:47:05;10.30;99.90
52016;DHT22;38032;53.326;6.472;2023-05-02T02:49:38;10.30;99.90
52016;DHT22;38032;53.326;6.472;2023-05-02T02:52:13;10.20;99.90
52016;DHT22;38032;53.326;6.472;2023-05-02T02:54:49;10.20;99.90
52016;DHT22;38032;53.326;6.472;2023-05-02T03:02:22;10.20;99.90
52016;DHT22;38032;53.326;6.472;2023-05-02T03:04:52;10.20;99.90
52016;DHT22;38032;53.326;6.472;2023-05-02T03:07:19;10.20;99.90
52016;DHT22;38032;53.326;6.472;2023-05-02T03:09:46;10.20;99.90
52016;DHT22;38032;53.326;6.472;2023-05-02T03:12:13;10.20;99.90
52016;DHT22;38032;53.326;6.472;2023-05-02T03:14:39;10.20;99.90
52016;DHT22;38032;53.326;6.472;2023-05-02T03:17:05;10.10;99.90
52016;DHT22;38032;53.326;6.472;2023-05-02T03:19:33;10.10;99.90
52016;DHT22;38032;53.326;6.472;2023-05-02T03:21:59;10.10;99.90
52016;DHT22;38032;53.326;6.472;2023-05-02T03:24:25;10.10;99.90
52016;DHT22;38032;53.326;6.472;2023-05-02T03:26:54;10.00;99.90
52016;DHT22;38032;53.326;6.472;2023-05-02T03:29:20;9.90;99.90
52016;DHT22;38032;53.326;6.472;2023-05-02T03:31:46;10.00;99.90
52016;DHT22;38032;53.326;6.472;2023-05-02T03:34:12;9.90;99.90
52016;DHT22;38032;53.326;6.472;2023-05-02T03:36:38;9.90;99.90
52016;DHT22;38032;53.326;6.472;2023-05-02T03:39:04;9.90;99.90
52016;DHT22;38032;53.326;6.472;2023-05-02T03:41:31;9.90;99.90
52016;DHT22;38032;53.326;6.472;2023-05-02T03:46:23;10.40;99.90
52016;DHT22;38032;53.326;6.472;2023-05-02T03:48:49;9.90;99.90
52016;DHT22;38032;53.326;6.472;2023-05-02T03:51:15;9.80;99.90
52016;DHT22;38032;53.326;6.472;2023-05-02T03:53:41;9.80;99.90
52016;DHT22;38032;53.326;6.472;2023-05-02T03:56:08;9.80;99.90
52016;DHT22;38032;53.326;6.472;2023-05-02T03:58:34;9.80;99.90
52016;DHT22;38032;53.326;6.472;2023-05-02T04:01:01;9.80;99.90
52016;DHT22;38032;53.326;6.472;2023-05-02T04:05:53;9.70;99.90
52016;DHT22;38032;53.326;6.472;2023-05-02T04:08:19;9.60;99.90
52016;DHT22;38032;53.326;6.472;2023-05-02T04:10:45;9.60;99.90
52016;DHT22;38032;53.326;6.472;2023-05-02T04:13:11;9.60;99.90
52016;DHT22;38032;53.326;6.472;2023-05-02T04:15:37;9.60;99.90
52016;DHT22;38032;53.326;6.472;2023-05-02T04:18:03;9.60;99.90
52016;DHT22;38032;53.326;6.472;2023-05-02T04:20:29;9.50;99.90
52016;DHT22;38032;53.326;6.472;2023-05-02T04:22:55;9.60;99.90
52016;DHT22;38032;53.326;6.472;2023-05-02T04:25:21;9.50;99.90
52016;DHT22;38032;53.326;6.472;2023-05-02T04:27:47;9.50;99.90
52016;DHT22;38032;53.326;6.472;2023-05-02T04:30:12;9.50;99.90
52016;DHT22;38032;53.326;6.472;2023-05-02T04:32:39;9.40;99.90
52016;DHT22;38032;53.326;6.472;2023-05-02T04:35:05;9.50;99.90
52016;DHT22;38032;53.326;6.472;2023-05-02T04:37:31;9.50;99.90
52016;DHT22;38032;53.326;6.472;2023-05-02T04:39:57;9.50;99.90
52016;DHT22;38032;53.326;6.472;2023-05-02T04:42:23;9.50;99.90
52016;DHT22;38032;53.326;6.472;2023-05-02T04:44:49;9.50;99.90
52016;DHT22;38032;53.326;6.472;2023-05-02T04:47:15;9.50;99.90
52016;DHT22;38032;53.326;6.472;2023-05-02T04:49:41;9.40;99.90
52016;DHT22;38032;53.326;6.472;2023-05-02T04:52:08;9.50;99.90
52016;DHT22;38032;53.326;6.472;2023-05-02T04:54:35;9.50;99.90
52016;DHT22;38032;53.326;6.472;2023-05-02T04:57:01;9.50;99.90
52016;DHT22;38032;53.326;6.472;2023-05-02T04:59:28;9.50;99.90
52016;DHT22;38032;53.326;6.472;2023-05-02T05:01:55;9.50;99.90
52016;DHT22;38032;53.326;6.472;2023-05-02T05:04:21;9.40;99.90
52016;DHT22;38032;53.326;6.472;2023-05-02T05:06:47;9.60;99.90
52016;DHT22;38032;53.326;6.472;2023-05-02T05:09:14;9.50;99.90
52016;DHT22;38032;53.326;6.472;2023-05-02T05:11:40;9.50;99.90
52016;DHT22;38032;53.326;6.472;2023-05-02T05:14:08;9.50;99.90
52016;DHT22;38032;53.326;6.472;2023-05-02T05:16:34;9.60;99.90
52016;DHT22;38032;53.326;6.472;2023-05-02T05:19:00;9.50;99.90
52016;DHT22;38032;53.326;6.472;2023-05-02T05:21:26;9.60;99.90
52016;DHT22;38032;53.326;6.472;2023-05-02T05:23:52;9.40;99.90
52016;DHT22;38032;53.326;6.472;2023-05-02T05:26:17;9.60;99.90
52016;DHT22;38032;53.326;6.472;2023-05-02T05:28:43;9.60;99.90
52016;DHT22;38032;53.326;6.472;2023-05-02T05:31:12;9.60;99.90
52016;DHT22;38032;53.326;6.472;2023-05-02T05:33:38;9.60;99.90
52016;DHT22;38032;53.326;6.472;2023-05-02T05:36:05;9.60;99.90
52016;DHT22;38032;53.326;6.472;2023-05-02T05:38:32;9.60;99.90
52016;DHT22;38032;53.326;6.472;2023-05-02T05:40:58;9.60;99.90
52016;DHT22;38032;53.326;6.472;2023-05-02T05:43:23;9.80;99.90
52016;DHT22;38032;53.326;6.472;2023-05-02T05:45:52;9.70;99.90
52016;DHT22;38032;53.326;6.472;2023-05-02T05:48:18;9.70;99.90
52016;DHT22;38032;53.326;6.472;2023-05-02T05:50:44;9.80;99.90
52016;DHT22;38032;53.326;6.472;2023-05-02T05:53:11;9.80;99.90
52016;DHT22;38032;53.326;6.472;2023-05-02T05:55:37;9.70;99.90
52016;DHT22;38032;53.326;6.472;2023-05-02T05:58:04;9.60;99.90
52016;DHT22;38032;53.326;6.472;2023-05-02T06:00:30;9.70;99.90
52016;DHT22;38032;53.326;6.472;2023-05-02T06:02:56;9.70;99.90
52016;DHT22;38032;53.326;6.472;2023-05-02T06:05:22;9.70;99.90
52016;DHT22;38032;53.326;6.472;2023-05-02T06:07:48;9.70;99.90
52016;DHT22;38032;53.326;6.472;2023-05-02T06:10:14;9.70;99.90
52016;DHT22;38032;53.326;6.472;2023-05-02T06:12:40;9.70;99.90
52016;DHT22;38032;53.326;6.472;2023-05-02T06:15:06;9.70;99.90
52016;DHT22;38032;53.326;6.472;2023-05-02T06:17:32;9.80;99.90
52016;DHT22;38032;53.326;6.472;2023-05-02T06:19:58;9.80;99.90
52016;DHT22;38032;53.326;6.472;2023-05-02T06:22:23;9.80;99.90
52016;DHT22;38032;53.326;6.472;2023-05-02T06:24:49;9.80;99.90
52016;DHT22;38032;53.326;6.472;2023-05-02T06:27:15;9.80;99.90
52016;DHT22;38032;53.326;6.472;2023-05-02T06:29:41;9.80;99.90
52016;DHT22;38032;53.326;6.472;2023-05-02T06:32:07;9.80;99.90
52016;DHT22;38032;53.326;6.472;2023-05-02T06:34:34;9.90;99.90
52016;DHT22;38032;53.326;6.472;2023-05-02T06:39:26;9.90;99.90
52016;DHT22;38032;53.326;6.472;2023-05-02T06:41:56;10.00;99.90
52016;DHT22;38032;53.326;6.472;2023-05-02T06:44:23;10.10;99.90
52016;DHT22;38032;53.326;6.472;2023-05-02T06:46:48;10.10;99.90
52016;DHT22;38032;53.326;6.472;2023-05-02T06:49:15;10.10;99.90
52016;DHT22;38032;53.326;6.472;2023-05-02T06:51:41;10.20;99.60
52016;DHT22;38032;53.326;6.472;2023-05-02T06:54:07;10.20;99.50
52016;DHT22;38032;53.326;6.472;2023-05-02T06:56:33;10.20;99.90
52016;DHT22;38032;53.326;6.472;2023-05-02T06:58:59;10.30;99.90
52016;DHT22;38032;53.326;6.472;2023-05-02T07:16:05;10.30;99.90
52016;DHT22;38032;53.326;6.472;2023-05-02T07:18:31;10.50;98.80
52016;DHT22;38032;53.326;6.472;2023-05-02T07:20:57;10.60;99.90
52016;DHT22;38032;53.326;6.472;2023-05-02T07:23:23;10.60;99.90
52016;DHT22;38032;53.326;6.472;2023-05-02T07:25:49;10.80;99.90
52016;DHT22;38032;53.326;6.472;2023-05-02T07:28:15;10.90;99.90
52016;DHT22;38032;53.326;6.472;2023-05-02T07:30:41;11.10;99.90
52016;DHT22;38032;53.326;6.472;2023-05-02T07:33:07;11.30;99.90
52016;DHT22;38032;53.326;6.472;2023-05-02T07:35:33;11.40;99.90
52016;DHT22;38032;53.326;6.472;2023-05-02T07:37:58;11.60;99.90
52016;DHT22;38032;53.326;6.472;2023-05-02T07:40:24;11.80;99.90
52016;DHT22;38032;53.326;6.472;2023-05-02T07:42:50;11.90;99.60
52016;DHT22;38032;53.326;6.472;2023-05-02T07:45:16;11.90;99.20
52016;DHT22;38032;53.326;6.472;2023-05-02T07:47:42;11.80;98.50
52016;DHT22;38032;53.326;6.472;2023-05-02T07:50:08;11.70;98.70
52016;DHT22;38032;53.326;6.472;2023-05-02T07:52:34;11.70;99.20
52016;DHT22;38032;53.326;6.472;2023-05-02T07:55:00;11.90;98.00
52016;DHT22;38032;53.326;6.472;2023-05-02T07:57:26;12.00;97.30
52016;DHT22;38032;53.326;6.472;2023-05-02T07:59:52;11.70;97.10
52016;DHT22;38032;53.326;6.472;2023-05-02T08:02:18;12.10;95.00
52016;DHT22;38032;53.326;6.472;2023-05-02T08:04:46;12.30;95.10
52016;DHT22;38032;53.326;6.472;2023-05-02T08:07:12;12.40;93.60
52016;DHT22;38032;53.326;6.472;2023-05-02T08:09:38;12.60;93.70
52016;DHT22;38032;53.326;6.472;2023-05-02T08:12:04;12.90;94.20
52016;DHT22;38032;53.326;6.472;2023-05-02T08:14:30;13.20;93.40
52016;DHT22;38032;53.326;6.472;2023-05-02T08:16:56;13.50;92.30
52016;DHT22;38032;53.326;6.472;2023-05-02T08:19:22;13.70;91.50
52016;DHT22;38032;53.326;6.472;2023-05-02T08:21:48;14.10;91.20
52016;DHT22;38032;53.326;6.472;2023-05-02T08:24:14;15.10;92.50
52016;DHT22;38032;53.326;6.472;2023-05-02T08:26:40;15.10;88.70
52016;DHT22;38032;53.326;6.472;2023-05-02T08:29:05;15.70;85.40
52016;DHT22;38032;53.326;6.472;2023-05-02T08:31:31;16.20;83.00
52016;DHT22;38032;53.326;6.472;2023-05-02T08:33:58;16.80;80.50
52016;DHT22;38032;53.326;6.472;2023-05-02T08:36:23;17.40;77.90
52016;DHT22;38032;53.326;6.472;2023-05-02T08:38:49;17.70;76.10
52016;DHT22;38032;53.326;6.472;2023-05-02T08:41:17;17.50;73.70
52016;DHT22;38032;53.326;6.472;2023-05-02T08:43:44;17.10;72.40
52016;DHT22;38032;53.326;6.472;2023-05-02T08:46:12;16.80;71.90
52016;DHT22;38032;53.326;6.472;2023-05-02T08:48:41;16.50;72.10
52016;DHT22;38032;53.326;6.472;2023-05-02T08:51:09;16.10;72.70
52016;DHT22;38032;53.326;6.472;2023-05-02T08:53:36;15.80;74.10
52016;DHT22;38032;53.326;6.472;2023-05-02T08:56:03;15.40;75.10
52016;DHT22;38032;53.326;6.472;2023-05-02T08:58:29;15.00;75.70
52016;DHT22;38032;53.326;6.472;2023-05-02T09:01:00;14.70;77.60
52016;DHT22;38032;53.326;6.472;2023-05-02T09:03:34;14.60;78.90
52016;DHT22;38032;53.326;6.472;2023-05-02T09:06:07;14.80;79.60
52016;DHT22;38032;53.326;6.472;2023-05-02T09:08:34;15.50;79.80
52016;DHT22;38032;53.326;6.472;2023-05-02T09:11:02;15.80;78.90
52016;DHT22;38032;53.326;6.472;2023-05-02T09:13:30;16.10;77.90
52016;DHT22;38032;53.326;6.472;2023-05-02T09:16:01;16.50;77.00
52016;DHT22;38032;53.326;6.472;2023-05-02T09:18:29;17.00;75.40
52016;DHT22;38032;53.326;6.472;2023-05-02T09:20:57;17.20;73.70
52016;DHT22;38032;53.326;6.472;2023-05-02T09:23:33;17.30;72.50
52016;DHT22;38032;53.326;6.472;2023-05-02T09:25:59;17.30;71.80
52016;DHT22;38032;53.326;6.472;2023-05-02T09:28:41;17.10;71.40
52016;DHT22;38032;53.326;6.472;2023-05-02T09:31:10;16.70;71.90
52016;DHT22;38032;53.326;6.472;2023-05-02T09:33:37;16.40;71.70
52016;DHT22;38032;53.326;6.472;2023-05-02T09:36:05;16.10;73.30
52016;DHT22;38032;53.326;6.472;2023-05-02T09:38:32;16.00;73.60
52016;DHT22;38032;53.326;6.472;2023-05-02T09:40:59;16.00;72.60
52016;DHT22;38032;53.326;6.472;2023-05-02T09:43:26;16.40;72.20
52016;DHT22;38032;53.326;6.472;2023-05-02T09:45:56;16.80;72.10
52016;DHT22;38032;53.326;6.472;2023-05-02T09:48:22;16.90;71.20
52016;DHT22;38032;53.326;6.472;2023-05-02T09:50:48;17.00;70.10
52016;DHT22;38032;53.326;6.472;2023-05-02T09:53:14;17.00;69.20
52016;DHT22;38032;53.326;6.472;2023-05-02T09:55:40;16.90;69.60
52016;DHT22;38032;53.326;6.472;2023-05-02T09:58:05;16.70;70.00
52016;DHT22;38032;53.326;6.472;2023-05-02T10:00:43;16.50;70.30
52016;DHT22;38032;53.326;6.472;2023-05-02T10:03:09;16.30;69.30
52016;DHT22;38032;53.326;6.472;2023-05-02T10:05:37;16.20;70.70
52016;DHT22;38032;53.326;6.472;2023-05-02T10:08:05;17.90;75.60
52016;DHT22;38032;53.326;6.472;2023-05-02T10:10:32;18.50;69.00
52016;DHT22;38032;53.326;6.472;2023-05-02T10:13:02;19.00;67.50
52016;DHT22;38032;53.326;6.472;2023-05-02T10:15:31;19.00;65.90
52016;DHT22;38032;53.326;6.472;2023-05-02T10:17:59;19.00;65.90
52016;DHT22;38032;53.326;6.472;2023-05-02T10:20:31;19.00;65.10
52016;DHT22;38032;53.326;6.472;2023-05-02T10:22:59;18.70;64.90
52016;DHT22;38032;53.326;6.472;2023-05-02T10:25:27;18.40;64.80
52016;DHT22;38032;53.326;6.472;2023-05-02T10:27:56;18.00;65.40
52016;DHT22;38032;53.326;6.472;2023-05-02T10:30:24;17.60;65.70
52016;DHT22;38032;53.326;6.472;2023-05-02T10:32:51;17.30;65.80
52016;DHT22;38032;53.326;6.472;2023-05-02T10:35:19;17.10;67.00
52016;DHT22;38032;53.326;6.472;2023-05-02T10:37:46;17.10;68.00
52016;DHT22;38032;53.326;6.472;2023-05-02T10:40:13;17.70;68.80
52016;DHT22;38032;53.326;6.472;2023-05-02T10:42:43;18.40;68.80
52016;DHT22;38032;53.326;6.472;2023-05-02T10:45:31;19.30;68.30
52016;DHT22;38032;53.326;6.472;2023-05-02T10:48:17;20.20;67.20
52016;DHT22;38032;53.326;6.472;2023-05-02T10:50:46;20.80;64.90
52016;DHT22;38032;53.326;6.472;2023-05-02T10:53:30;20.70;64.30
52016;DHT22;38032;53.326;6.472;2023-05-02T10:58:39;20.00;63.90
52016;DHT22;38032;53.326;6.472;2023-05-02T11:03:55;19.20;64.00
52016;DHT22;38032;53.326;6.472;2023-05-02T11:06:22;19.00;64.00
52016;DHT22;38032;53.326;6.472;2023-05-02T11:08:48;19.00;64.50
52016;DHT22;38032;53.326;6.472;2023-05-02T11:11:37;19.20;65.30
52016;DHT22;38032;53.326;6.472;2023-05-02T11:14:04;19.70;65.90
52016;DHT22;38032;53.326;6.472;2023-05-02T11:22:33;19.20;63.60
52016;DHT22;38032;53.326;6.472;2023-05-02T11:24:59;19.00;62.60
52016;DHT22;38032;53.326;6.472;2023-05-02T11:29:55;18.60;61.90
52016;DHT22;38032;53.326;6.472;2023-05-02T11:32:21;18.60;62.70
52016;DHT22;38032;53.326;6.472;2023-05-02T11:34:48;18.70;62.50
52016;DHT22;38032;53.326;6.472;2023-05-02T11:37:20;18.80;60.90
52016;DHT22;38032;53.326;6.472;2023-05-02T11:39:46;18.80;61.20
52016;DHT22;38032;53.326;6.472;2023-05-02T11:42:30;18.90;62.00
52016;DHT22;38032;53.326;6.472;2023-05-02T11:44:58;18.90;61.10
52016;DHT22;38032;53.326;6.472;2023-05-02T11:47:25;18.70;62.70
52016;DHT22;38032;53.326;6.472;2023-05-02T11:49:54;18.70;62.50
52016;DHT22;38032;53.326;6.472;2023-05-02T11:52:22;18.60;62.30
52016;DHT22;38032;53.326;6.472;2023-05-02T11:54:48;18.40;62.50
52016;DHT22;38032;53.326;6.472;2023-05-02T11:57:14;18.50;85.90
52016;DHT22;38032;53.326;6.472;2023-05-02T11:59:51;18.30;81.90
52016;DHT22;38032;53.326;6.472;2023-05-02T12:02:18;18.10;65.10
52016;DHT22;38032;53.326;6.472;2023-05-02T12:04:44;18.00;64.40
52016;DHT22;38032;53.326;6.472;2023-05-02T12:07:10;18.00;72.80
52016;DHT22;38032;53.326;6.472;2023-05-02T12:09:50;17.90;62.20
52016;DHT22;38032;53.326;6.472;2023-05-02T12:12:20;17.80;63.00
52016;DHT22;38032;53.326;6.472;2023-05-02T12:14:47;17.70;63.60
52016;DHT22;38032;53.326;6.472;2023-05-02T12:17:13;17.70;64.20
52016;DHT22;38032;53.326;6.472;2023-05-02T12:19:39;17.80;63.70
52016;DHT22;38032;53.326;6.472;2023-05-02T12:22:05;17.80;62.70
52016;DHT22;38032;53.326;6.472;2023-05-02T12:24:32;17.90;62.80
52016;DHT22;38032;53.326;6.472;2023-05-02T12:27:12;17.80;63.70
52016;DHT22;38032;53.326;6.472;2023-05-02T12:29:39;17.60;65.00
52016;DHT22;38032;53.326;6.472;2023-05-02T12:32:06;17.30;67.10
52016;DHT22;38032;53.326;6.472;2023-05-02T12:34:33;17.20;65.90
52016;DHT22;38032;53.326;6.472;2023-05-02T12:36:59;17.00;66.80
52016;DHT22;38032;53.326;6.472;2023-05-02T12:42:15;16.30;69.00
52016;DHT22;38032;53.326;6.472;2023-05-02T12:44:43;16.20;69.30
52016;DHT22;38032;53.326;6.472;2023-05-02T12:47:11;16.20;69.40
52016;DHT22;38032;53.326;6.472;2023-05-02T12:49:55;16.30;69.80
52016;DHT22;38032;53.326;6.472;2023-05-02T12:52:46;16.30;71.10
52016;DHT22;38032;53.326;6.472;2023-05-02T12:55:15;16.40;70.00
52016;DHT22;38032;53.326;6.472;2023-05-02T12:57:41;16.40;68.10
52016;DHT22;38032;53.326;6.472;2023-05-02T13:00:08;16.40;67.40
52016;DHT22;38032;53.326;6.472;2023-05-02T13:02:34;16.50;67.10
52016;DHT22;38032;53.326;6.472;2023-05-02T13:05:00;16.60;68.20
52016;DHT22;38032;53.326;6.472;2023-05-02T13:07:26;16.70;67.50
52016;DHT22;38032;53.326;6.472;2023-05-02T13:09:52;16.70;66.90
52016;DHT22;38032;53.326;6.472;2023-05-02T13:12:17;16.60;67.30
52016;DHT22;38032;53.326;6.472;2023-05-02T13:14:43;16.50;66.40
52016;DHT22;38032;53.326;6.472;2023-05-02T13:17:09;16.40;67.20
52016;DHT22;38032;53.326;6.472;2023-05-02T13:19:35;16.40;67.60
52016;DHT22;38032;53.326;6.472;2023-05-02T13:22:01;16.40;67.50
52016;DHT22;38032;53.326;6.472;2023-05-02T13:24:27;16.40;67.30
52016;DHT22;38032;53.326;6.472;2023-05-02T13:26:53;16.30;68.10
52016;DHT22;38032;53.326;6.472;2023-05-02T13:29:19;16.20;67.60
52016;DHT22;38032;53.326;6.472;2023-05-02T13:31:44;16.30;68.00
52016;DHT22;38032;53.326;6.472;2023-05-02T13:34:10;16.40;69.10
52016;DHT22;38032;53.326;6.472;2023-05-02T13:36:36;16.40;69.00
52016;DHT22;38032;53.326;6.472;2023-05-02T13:39:08;16.30;67.50
52016;DHT22;38032;53.326;6.472;2023-05-02T13:41:34;16.20;67.50
52016;DHT22;38032;53.326;6.472;2023-05-02T13:44:01;16.10;67.30
52016;DHT22;38032;53.326;6.472;2023-05-02T13:46:28;16.10;68.70
52016;DHT22;38032;53.326;6.472;2023-05-02T13:48:53;16.10;68.60
52016;DHT22;38032;53.326;6.472;2023-05-02T13:51:19;16.20;67.80
52016;DHT22;38032;53.326;6.472;2023-05-02T13:53:45;16.30;68.60
52016;DHT22;38032;53.326;6.472;2023-05-02T13:56:11;16.20;69.50
52016;DHT22;38032;53.326;6.472;2023-05-02T13:58:37;16.00;69.90
52016;DHT22;38032;53.326;6.472;2023-05-02T14:01:03;15.80;70.60
52016;DHT22;38032;53.326;6.472;2023-05-02T14:03:29;15.70;71.10
52016;DHT22;38032;53.326;6.472;2023-05-02T14:05:55;15.60;71.10
52016;DHT22;38032;53.326;6.472;2023-05-02T14:08:21;15.50;71.90
52016;DHT22;38032;53.326;6.472;2023-05-02T14:10:46;15.50;71.90
52016;DHT22;38032;53.326;6.472;2023-05-02T14:13:12;15.40;71.30
52016;DHT22;38032;53.326;6.472;2023-05-02T14:15:38;15.40;71.20
52016;DHT22;38032;53.326;6.472;2023-05-02T14:18:04;15.40;70.90
52016;DHT22;38032;53.326;6.472;2023-05-02T14:20:30;15.30;71.70
52016;DHT22;38032;53.326;6.472;2023-05-02T14:22:55;15.30;71.00
52016;DHT22;38032;53.326;6.472;2023-05-02T14:25:21;15.20;71.30
52016;DHT22;38032;53.326;6.472;2023-05-02T14:27:47;15.10;71.50
52016;DHT22;38032;53.326;6.472;2023-05-02T14:30:13;15.10;71.60
52016;DHT22;38032;53.326;6.472;2023-05-02T14:32:39;15.20;73.00
52016;DHT22;38032;53.326;6.472;2023-05-02T14:35:05;15.10;72.40
52016;DHT22;38032;53.326;6.472;2023-05-02T14:37:31;15.10;72.00
52016;DHT22;38032;53.326;6.472;2023-05-02T14:39:57;15.10;71.20
52016;DHT22;38032;53.326;6.472;2023-05-02T14:42:23;15.20;71.60
52016;DHT22;38032;53.326;6.472;2023-05-02T14:44:50;15.20;72.70
52016;DHT22;38032;53.326;6.472;2023-05-02T14:47:16;15.20;72.30
52016;DHT22;38032;53.326;6.472;2023-05-02T14:49:42;15.20;72.50
52016;DHT22;38032;53.326;6.472;2023-05-02T14:52:08;15.20;72.30
52016;DHT22;38032;53.326;6.472;2023-05-02T14:54:34;15.20;72.70
52016;DHT22;38032;53.326;6.472;2023-05-02T14:57:01;15.20;72.90
52016;DHT22;38032;53.326;6.472;2023-05-02T14:59:28;15.20;71.90
52016;DHT22;38032;53.326;6.472;2023-05-02T15:01:55;15.20;71.40
52016;DHT22;38032;53.326;6.472;2023-05-02T15:04:21;15.20;72.10
52016;DHT22;38032;53.326;6.472;2023-05-02T15:06:48;15.00;71.40
52016;DHT22;38032;53.326;6.472;2023-05-02T15:09:14;15.00;70.80
52016;DHT22;38032;53.326;6.472;2023-05-02T15:11:41;15.00;71.90
52016;DHT22;38032;53.326;6.472;2023-05-02T15:14:07;14.90;71.80
52016;DHT22;38032;53.326;6.472;2023-05-02T15:16:33;14.80;70.90
52016;DHT22;38032;53.326;6.472;2023-05-02T15:18:58;14.80;70.90
52016;DHT22;38032;53.326;6.472;2023-05-02T15:21:24;14.80;70.80
52016;DHT22;38032;53.326;6.472;2023-05-02T15:23:50;14.80;70.50
52016;DHT22;38032;53.326;6.472;2023-05-02T15:26:16;14.70;71.50
52016;DHT22;38032;53.326;6.472;2023-05-02T15:28:42;14.70;72.30
52016;DHT22;38032;53.326;6.472;2023-05-02T15:31:08;14.60;71.80
52016;DHT22;38032;53.326;6.472;2023-05-02T15:33:34;14.50;72.80
52016;DHT22;38032;53.326;6.472;2023-05-02T15:36:00;14.50;72.60
52016;DHT22;38032;53.326;6.472;2023-05-02T15:38:25;14.50;72.50
52016;DHT22;38032;53.326;6.472;2023-05-02T15:40:57;14.40;73.30
52016;DHT22;38032;53.326;6.472;2023-05-02T15:43:24;14.40;74.10
52016;DHT22;38032;53.326;6.472;2023-05-02T15:45:53;14.30;73.00
52016;DHT22;38032;53.326;6.472;2023-05-02T15:48:19;14.30;73.70
52016;DHT22;38032;53.326;6.472;2023-05-02T15:50:46;14.30;74.00
52016;DHT22;38032;53.326;6.472;2023-05-02T15:53:13;14.30;74.30
52016;DHT22;38032;53.326;6.472;2023-05-02T15:55:40;14.20;72.80
52016;DHT22;38032;53.326;6.472;2023-05-02T15:58:06;14.30;73.00
52016;DHT22;38032;53.326;6.472;2023-05-02T16:00:33;14.40;73.10
52016;DHT22;38032;53.326;6.472;2023-05-02T16:03:00;14.60;72.60
52016;DHT22;38032;53.326;6.472;2023-05-02T16:05:26;14.70;72.00
52016;DHT22;38032;53.326;6.472;2023-05-02T16:07:52;14.70;73.20
52016;DHT22;38032;53.326;6.472;2023-05-02T16:10:18;14.80;72.60
52016;DHT22;38032;53.326;6.472;2023-05-02T16:12:44;14.90;72.70
52016;DHT22;38032;53.326;6.472;2023-05-02T16:15:10;14.90;70.30
52016;DHT22;38032;53.326;6.472;2023-05-02T16:17:36;15.00;70.50
52016;DHT22;38032;53.326;6.472;2023-05-02T16:20:02;14.80;71.00
52016;DHT22;38032;53.326;6.472;2023-05-02T16:22:31;14.70;70.80
52016;DHT22;38032;53.326;6.472;2023-05-02T16:24:57;14.60;72.30
52016;DHT22;38032;53.326;6.472;2023-05-02T16:27:23;14.40;74.60
52016;DHT22;38032;53.326;6.472;2023-05-02T16:29:49;14.40;76.40
52016;DHT22;38032;53.326;6.472;2023-05-02T16:32:15;14.30;74.50